Неизвестная ошибка (Warning): строка 43 файла /metar/Service/MetarService.php
Описание:
file_get_contents(https://www.aviationweather.gov/adds/metars/?station_ids=UNNT&std_trans=standard&chk_metars=on&hoursStr=most+recent+only&submitmet=Submit): Failed to open stream: HTTP request failed! HTTP/1.1 403 Forbidden
Трассировка:
 #1 metar/Service/MetarService.php, line=43, function=file_get_contents()
  #2 metar/Service/MetarService.php, line=18, function=getFromAviationweatherGov()
   #3 metar/index.php, line=30, function=getMetarString()
    #4 index.php, line=1, function=include()
Погода для параплана Кемерово под Лысую гору

Погода METAR - Новосибирск (Толмачево)

Кемерово, Абакан, Красноярск, Новосибирск
Код METAR: UNNT 190830Z 22004MPS 9999 BKN033CB 26/18 Q0996 R25/090070 R34/////// NOSIG RMK QFE737/0983

Погода - Сейчас

Время: 2024-07-19 15:30, местное
Направление ветра: Юго-запад (220°)
Скорость ветра: 4 м/с
Видимость:
Температура: 26°C
Точка росы: 18°C
Атмосферное давление: 996 гПа

Архив погоды

Время, местное Направление Скорость, м/с Температура, °C Точка росы, °C Давление, гПа
2024-07-19 15:30 ЮЗ (220°) 4 26 18 996
2024-07-17 21:00 Ю (190°) 3 24 19 1001
2024-07-17 11:00 Ю (170°) 5 21 19 1002
2024-07-17 05:30 С (360°) 1 20 20 1002
2024-07-16 07:30 С (360°) 1 20 18 1007
2024-07-16 07:00 С (10°) 2 19 18 1007
2024-07-14 17:00 СВ (50°) 4 30 17 1006
2024-07-14 07:30 Штиль 0 18 17 1007
2024-07-13 11:00 В (100°) 2 26 13 1008
2024-07-12 08:30 Штиль 0 20 17 1009
2024-07-11 20:30 ССЗ (330°) 2 24 15 1009
2024-07-11 15:30 СЗ (300°) 6 26 15 1008
2024-07-10 11:00 ЗЮЗ (250°) 2 23 14 1012
2024-07-10 10:00 ЗЮЗ (240°) 2 21 15 1012
2024-07-09 01:00 С (360°) 3 16 15 1007
2024-07-06 22:00 СВ (30°) 2 23 18 1004
2024-07-04 18:30 С (360°) 4 22 17 1005
2024-07-02 16:30 ЮЮВ (160°) 5 25 17 999
2024-06-30 15:30 ЗЮЗ (260°) 5 27 14 1002
2024-06-30 00:35 ЮЮВ (160°) 2 26 21 999
2024-06-29 16:00 ВЮВ (110°) 2 33 18 1001
2024-06-28 16:30 С (360°) 2 33 18 1007
2024-06-27 23:00 ЮЮВ (150°) 2 26 19 1009
2024-06-26 18:00 ЮЮВ (160°) 2 31 19 1009
2024-06-25 23:00 В (80°) 2 21 21 1006
2024-06-25 10:30 Штиль 0 29 22 1004
2024-06-23 19:00 СЗ (300°) 3 31 18 1005
2024-06-22 05:13 ЮЮВ (160°) 5 20 16 1000
2024-06-21 17:00 ЮЮВ (160°) 6 20 16 1003
2024-06-21 04:30 ЮВ (140°) 3 16 12 1007
2024-06-21 00:30 Ю (170°) 2 16 14 1008
2024-06-20 10:30 Переменный 1 17 9 1012
2024-06-20 02:00 ЗЮЗ (250°) 4 14 8 1011
2024-06-16 00:30 З (270°) 2 21 15 1009
2024-06-07 22:00 СВ (30°) 1 15 15 1002
2024-06-06 07:30 ЮЮВ (160°) 5 12 11 1005
2024-06-05 16:00 ЮЮЗ (200°) 5 16 3 1017
2024-06-03 18:30 З (280°) 6 21 2 1011
2024-06-02 16:00 ЮЗ (210°) 4 19 1 1015
2024-05-31 13:00 СЗ (300°) 7 9 -6 1022
2024-05-31 06:00 ССЗ (340°) 2 4 -3 1017
2024-05-30 22:30 Ю (180°) 2 9 -7 1017
2024-05-30 13:30 СЗ (310°) 2 8 -8 1019
2024-05-26 12:00 В (100°) 3 12 6 1010
2024-05-22 15:30 ЗЮЗ (250°) 7, порывы до 12 19 8 1012
2024-05-22 03:00 ЮЗ (210°) 4 13 8 1012
2024-05-22 00:30 ЮЗ (220°) 5 15 8 1012
2024-05-21 13:30 ЗЮЗ (250°) 7 18 10 1012